Time;durP1;ratioP1;P1;durP2;ratioP2;P2;SDS_P1;SDS_P2;PMS_P1;PMS_P2;Temp;Humidity;BMP_temperature;BMP_pressure;BME280_temperature;BME280_humidity;BME280_pressure;Samples;Min_cycle;Max_cycle;Signal;HPM_P1;HPM_P2
2022/06/30 00:00:24;;;;;;;12.00;5.60;;;;;;;22.86;49.62;99336.59;25029;1315;3028460;-60
2022/06/30 00:02:53;;;;;;;12.10;5.40;;;;;;;22.85;50.05;99330.13;25077;1315;3054302;-61
2022/06/30 00:05:22;;;;;;;15.40;6.10;;;;;;;22.85;49.63;99323.36;25053;1314;3026252;-60
2022/06/30 00:07:51;;;;;;;13.30;5.80;;;;;;;22.83;49.51;99317.84;25093;1315;3050725;-62
2022/06/30 00:10:20;;;;;;;12.70;6.20;;;;;;;22.83;49.46;99317.89;25044;1315;3025932;-61
2022/06/30 00:15:39;;;;;;;18.80;6.10;;;;;;;22.87;49.62;99312.41;31489;1318;3026264;-60
2022/06/30 00:18:08;;;;;;;15.80;7.70;;;;;;;23.04;49.25;99311.17;24977;1316;3026498;-61
2022/06/30 00:20:37;;;;;;;21.90;6.90;;;;;;;23.21;48.69;99307.31;25016;1316;3026815;-62
2022/06/30 00:23:06;;;;;;;11.00;6.20;;;;;;;23.07;49.19;99310.34;25060;1316;3051151;-62
2022/06/30 00:25:35;;;;;;;14.50;6.40;;;;;;;22.98;49.29;99306.71;25013;1316;3026901;-63
2022/06/30 00:28:04;;;;;;;10.00;6.20;;;;;;;22.89;49.45;99300.77;24650;1313;3607321;-63
2022/06/30 00:30:34;;;;;;;14.70;6.30;;;;;;;22.79;49.93;99302.11;25023;1313;3026228;-64
2022/06/30 00:33:03;;;;;;;12.80;6.70;;;;;;;22.71;50.34;99298.95;25119;1313;3026536;-63
2022/06/30 00:35:32;;;;;;;13.40;6.60;;;;;;;22.66;50.52;99298.36;25036;1315;3067430;-61
2022/06/30 00:38:02;;;;;;;9.20;6.30;;;;;;;22.62;50.62;99294.17;25082;1313;3026665;-64
2022/06/30 00:40:39;;;;;;;12.10;6.60;;;;;;;22.63;50.29;99295.85;25051;1313;3026258;-63
2022/06/30 00:43:08;;;;;;;13.70;5.80;;;;;;;22.61;50.48;99296.58;25053;1313;3055630;-62
2022/06/30 00:45:41;;;;;;;12.10;6.10;;;;;;;22.57;50.71;99296.40;25099;1313;3029814;-61
2022/06/30 00:48:10;;;;;;;15.50;6.70;;;;;;;22.49;50.89;99291.52;25112;1313;3052728;-61
2022/06/30 00:50:40;;;;;;;13.50;6.30;;;;;;;22.45;50.94;99290.57;25066;1313;3027679;-61
2022/06/30 00:53:09;;;;;;;16.80;6.70;;;;;;;22.41;51.21;99289.11;25045;1313;3026850;-60
2022/06/30 00:55:39;;;;;;;13.00;6.50;;;;;;;22.37;51.50;99291.50;25050;1313;3026720;-61
2022/06/30 00:58:09;;;;;;;21.00;7.00;;;;;;;22.33;51.48;99285.55;25096;1313;3027139;-61
2022/06/30 01:00:39;;;;;;;19.80;7.00;;;;;;;22.33;51.02;99285.30;25079;1313;3056689;-64
2022/06/30 01:03:08;;;;;;;14.20;6.80;;;;;;;22.30;51.21;99286.34;25121;1313;3026410;-61
2022/06/30 01:05:38;;;;;;;17.50;7.30;;;;;;;22.27;51.42;99280.98;25111;1313;3030349;-61
2022/06/30 01:08:07;;;;;;;14.20;7.10;;;;;;;22.27;51.25;99281.31;25087;1313;3027048;-61
2022/06/30 01:13:24;;;;;;;17.20;6.90;;;;;;;22.21;51.49;99285.20;25079;1313;3056084;-60
2022/06/30 01:15:53;;;;;;;12.80;6.60;;;;;;;22.18;51.59;99283.73;25044;1313;3026862;-60
2022/06/30 01:18:22;;;;;;;17.80;7.60;;;;;;;22.18;51.55;99279.67;25063;1313;3052832;-63
2022/06/30 01:20:51;;;;;;;13.20;6.60;;;;;;;22.17;51.36;99278.52;25066;1313;3028934;-61
2022/06/30 01:23:20;;;;;;;16.30;6.80;;;;;;;22.20;51.32;99273.71;25073;1313;3057952;-62
2022/06/30 01:25:50;;;;;;;14.20;6.80;;;;;;;22.20;51.33;99271.75;25059;1313;3026285;-63
2022/06/30 01:28:21;;;;;;;14.60;7.10;;;;;;;22.17;51.17;99268.55;25063;1313;3051889;-62
2022/06/30 01:30:50;;;;;;;15.70;6.90;;;;;;;22.13;51.22;99270.37;25091;1313;3026398;-61
2022/06/30 01:33:19;;;;;;;17.90;6.70;;;;;;;22.12;51.49;99265.35;25047;1313;3051523;-63
2022/06/30 01:35:48;;;;;;;13.40;6.60;;;;;;;22.11;51.37;99262.04;25084;1313;3026434;-60
2022/06/30 01:38:19;;;;;;;19.50;6.50;;;;;;;22.11;51.35;99265.27;25090;1313;3051230;-61
2022/06/30 01:40:48;;;;;;;13.80;6.80;;;;;;;22.10;51.27;99264.16;25107;1313;3026449;-62
2022/06/30 01:43:17;;;;;;;19.80;7.40;;;;;;;22.10;51.36;99261.33;25047;1313;3027161;-63
2022/06/30 01:45:46;;;;;;;16.20;7.10;;;;;;;22.11;51.29;99268.30;25095;1313;3046984;-63
2022/06/30 01:48:15;;;;;;;14.40;6.40;;;;;;;22.13;51.34;99267.77;25028;1313;3027033;-62
2022/06/30 01:50:44;;;;;;;14.30;6.40;;;;;;;22.16;50.90;99273.48;25154;1310;3067760;-60
2022/06/30 01:53:13;;;;;;;16.50;6.40;;;;;;;22.19;50.77;99274.94;25094;1313;3026740;-61
2022/06/30 01:55:42;;;;;;;18.30;7.80;;;;;;;22.20;50.67;99279.61;25095;1313;3051380;-61
2022/06/30 01:58:11;;;;;;;14.50;7.90;;;;;;;22.23;50.49;99286.91;25059;1313;3026401;-60
2022/06/30 02:00:40;;;;;;;14.20;9.10;;;;;;;22.24;50.47;99289.90;25100;1313;3053222;-63
2022/06/30 02:03:09;;;;;;;14.20;6.40;;;;;;;22.24;50.33;99285.41;25075;1313;3026914;-60
2022/06/30 02:05:38;;;;;;;14.00;6.80;;;;;;;22.26;50.13;99291.98;25082;1313;3051898;-60
2022/06/30 02:08:07;;;;;;;12.70;6.50;;;;;;;22.25;49.94;99296.55;25068;1313;3026163;-64
2022/06/30 02:10:37;;;;;;;12.70;7.50;;;;;;;22.21;50.21;99301.77;25116;1313;3027168;-61
2022/06/30 02:13:07;;;;;;;12.60;6.90;;;;;;;22.22;49.99;99302.94;25003;1315;3051182;-62
2022/06/30 02:15:37;;;;;;;16.00;6.60;;;;;;;22.22;49.71;99302.24;25075;1313;3026400;-65
2022/06/30 02:18:07;;;;;;;16.30;6.60;;;;;;;22.22;49.74;99303.64;25090;1313;3026541;-61
2022/06/30 02:20:37;;;;;;;17.00;6.50;;;;;;;22.24;49.94;99306.13;25075;1313;3051893;-61
2022/06/30 02:23:06;;;;;;;12.70;6.70;;;;;;;22.25;49.72;99310.66;25116;1313;3026705;-62
2022/06/30 02:25:35;;;;;;;20.90;7.00;;;;;;;22.20;49.78;99307.07;25111;1313;3026714;-61
2022/06/30 02:28:05;;;;;;;14.40;6.30;;;;;;;22.17;49.93;99308.69;25107;1312;3051525;-60
2022/06/30 02:30:34;;;;;;;20.00;7.10;;;;;;;22.14;49.95;99307.09;25063;1313;3026480;-62
2022/06/30 02:33:03;;;;;;;15.30;6.80;;;;;;;22.14;49.91;99307.05;25028;1313;3026770;-63
2022/06/30 02:35:32;;;;;;;13.80;6.80;;;;;;;22.13;49.67;99312.67;25136;1313;3026524;-62
2022/06/30 02:38:09;;;;;;;17.30;6.80;;;;;;;22.09;49.67;99321.67;25043;1313;3055471;-61
2022/06/30 02:40:38;;;;;;;14.80;6.70;;;;;;;21.99;50.07;99337.73;25081;1313;3049677;-59
2022/06/30 02:43:07;;;;;;;14.30;7.10;;;;;;;21.80;50.92;99342.73;25087;1313;3028932;-61
2022/06/30 02:45:36;;;;;;;12.70;7.10;;;;;;;21.73;51.21;99348.45;25114;1313;3029054;-64
2022/06/30 02:48:08;;;;;;;16.80;8.20;;;;;;;21.69;51.88;99358.04;25071;1313;3053925;-64
2022/06/30 02:50:38;;;;;;;20.00;8.30;;;;;;;21.54;52.93;99356.05;25078;1313;3026526;-63
2022/06/30 02:53:07;;;;;;;17.40;8.40;;;;;;;21.45;53.81;99355.00;25093;1313;3028034;-65
2022/06/30 02:55:36;;;;;;;20.10;9.80;;;;;;;21.45;54.50;99358.10;25067;1313;3052392;-62
2022/06/30 02:58:05;;;;;;;32.20;15.60;;;;;;;21.25;56.23;99360.16;25094;1313;3026780;-63
2022/06/30 03:00:34;;;;;;;37.10;14.00;;;;;;;21.04;57.31;99361.31;25123;1314;3055491;-63
2022/06/30 03:03:03;;;;;;;35.10;16.10;;;;;;;20.97;57.49;99355.85;25048;1313;3026588;-66
2022/06/30 03:05:33;;;;;;;40.30;15.40;;;;;;;20.90;57.67;99355.88;25133;1313;3048771;-63
2022/06/30 03:08:02;;;;;;;35.90;15.70;;;;;;;20.81;57.92;99361.13;25059;1313;3026479;-67
2022/06/30 03:10:31;;;;;;;38.80;17.50;;;;;;;20.84;57.53;99359.52;25091;1313;3057875;-63
2022/06/30 03:13:00;;;;;;;38.80;17.90;;;;;;;20.80;57.63;99362.98;25089;1313;3026598;-62
2022/06/30 03:15:29;;;;;;;31.60;12.90;;;;;;;20.60;57.79;99356.14;25078;1313;3054572;-65
2022/06/30 03:17:59;;;;;;;32.20;11.50;;;;;;;20.47;58.15;99358.02;25110;1313;3026492;-63
2022/06/30 03:20:28;;;;;;;25.10;9.60;;;;;;;20.40;58.27;99363.89;25119;1312;3027981;-63
2022/06/30 03:22:57;;;;;;;20.90;9.60;;;;;;;20.31;58.16;99362.15;25062;1313;3027175;-62
2022/06/30 03:25:27;;;;;;;22.80;9.10;;;;;;;20.25;58.36;99359.95;25057;1313;3029248;-64
2022/06/30 03:27:56;;;;;;;19.00;8.10;;;;;;;20.28;58.28;99353.96;25120;1313;3026814;-65
2022/06/30 03:30:26;;;;;;;19.20;7.80;;;;;;;20.27;58.51;99359.36;25049;1314;3055141;-65
2022/06/30 03:32:55;;;;;;;19.80;8.10;;;;;;;20.31;58.11;99358.95;25044;1313;3026965;-61
2022/06/30 03:35:24;;;;;;;19.10;9.00;;;;;;;20.34;58.06;99357.26;25079;1313;3026171;-64
2022/06/30 03:37:53;;;;;;;22.00;7.80;;;;;;;20.35;58.25;99359.80;25074;1313;3055280;-60
2022/06/30 03:40:22;;;;;;;27.50;8.00;;;;;;;20.35;58.12;99356.23;25076;1313;3026598;-61
2022/06/30 03:42:51;;;;;;;15.60;7.60;;;;;;;20.47;58.04;99356.09;25038;1313;3048696;-60
2022/06/30 03:45:21;;;;;;;18.00;7.90;;;;;;;20.55;57.72;99358.24;25109;1315;3026519;-66
2022/06/30 03:47:49;;;;;;;18.30;7.30;;;;;;;20.58;57.74;99353.91;25058;1312;3058823;-64
2022/06/30 03:50:19;;;;;;;24.10;7.70;;;;;;;20.63;57.10;99343.88;25038;1313;3026842;-62
2022/06/30 03:52:47;;;;;;;23.30;7.40;;;;;;;20.73;56.29;99342.87;25104;1313;3052316;-61
2022/06/30 03:55:17;;;;;;;14.80;6.90;;;;;;;20.80;55.85;99342.70;25111;1313;3026775;-58
2022/06/30 03:57:46;;;;;;;17.20;7.00;;;;;;;20.87;55.23;99343.74;24997;1313;3054797;-63
2022/06/30 04:00:16;;;;;;;17.80;7.00;;;;;;;20.87;54.98;99349.26;25084;1314;3026428;-62
2022/06/30 04:02:45;;;;;;;15.90;7.20;;;;;;;20.92;54.82;99349.40;25079;1314;3028462;-62
2022/06/30 04:05:14;;;;;;;15.80;6.90;;;;;;;21.01;54.30;99345.32;25058;1314;3053919;-60
2022/06/30 04:07:44;;;;;;;15.70;7.00;;;;;;;21.10;53.95;99343.80;25017;1315;3026808;-60
2022/06/30 04:10:15;;;;;;;19.00;7.90;;;;;;;21.19;53.77;99339.68;25092;1315;3048371;-63
2022/06/30 04:12:44;;;;;;;23.80;7.90;;;;;;;21.25;53.78;99342.02;25160;1314;3026552;-60
2022/06/30 04:15:13;;;;;;;22.30;6.90;;;;;;;21.29;53.22;99338.92;25011;1315;3029795;-64
2022/06/30 04:17:45;;;;;;;17.10;6.60;;;;;;;21.35;52.89;99340.96;25064;1313;3048753;-62
2022/06/30 04:20:17;;;;;;;19.30;6.80;;;;;;;21.39;52.92;99347.08;25180;1314;3028266;-64
2022/06/30 04:22:51;;;;;;;16.90;7.40;;;;;;;21.43;52.91;99349.21;25085;1315;3070554;-63
2022/06/30 04:25:20;;;;;;;18.20;7.20;;;;;;;21.47;52.93;99351.63;25092;1313;3030669;-61
2022/06/30 04:27:53;;;;;;;15.60;7.20;;;;;;;21.51;52.69;99350.99;25126;1313;3026528;-64
2022/06/30 04:33:10;;;;;;;20.80;7.80;;;;;;;21.60;52.26;99355.54;25091;1313;3049644;-62
2022/06/30 04:35:39;;;;;;;27.00;12.10;;;;;;;21.58;52.07;99354.16;25047;1313;3026812;-66
2022/06/30 04:38:09;;;;;;;27.70;13.20;;;;;;;21.58;51.50;99354.34;25039;1313;3070775;-61
2022/06/30 04:43:27;;;;;;;34.70;14.70;;;;;;;21.75;50.81;99352.89;25161;1315;3055338;-63
2022/06/30 04:45:56;;;;;;;34.30;14.40;;;;;;;21.83;50.25;99354.19;25067;1315;3026833;-64
2022/06/30 04:48:25;;;;;;;29.80;14.40;;;;;;;21.87;49.71;99352.31;25063;1315;3051391;-65
2022/06/30 04:50:54;;;;;;;30.10;14.10;;;;;;;21.92;49.39;99350.48;25048;1313;3026306;-69
2022/06/30 04:53:23;;;;;;;25.60;13.10;;;;;;;21.96;49.28;99351.98;25089;1314;3070377;-63
2022/06/30 04:55:52;;;;;;;27.50;12.50;;;;;;;22.03;48.78;99350.04;25044;1315;3026339;-67
2022/06/30 04:58:21;;;;;;;17.80;9.40;;;;;;;22.10;48.55;99350.66;25136;1314;3050868;-69
2022/06/30 05:00:51;;;;;;;18.30;8.50;;;;;;;22.18;48.16;99351.88;25143;1313;3026452;-65
2022/06/30 05:03:20;;;;;;;21.00;8.50;;;;;;;22.22;47.96;99351.47;25094;1313;3055237;-63
2022/06/30 05:05:49;;;;;;;19.60;7.70;;;;;;;22.29;48.24;99347.51;25057;1313;3026388;-62
2022/06/30 05:08:18;;;;;;;16.30;8.30;;;;;;;22.38;48.19;99346.91;25077;1315;3053090;-61
2022/06/30 05:10:47;;;;;;;17.50;7.70;;;;;;;22.45;48.39;99341.55;25067;1313;3026130;-66
2022/06/30 05:13:16;;;;;;;21.30;7.80;;;;;;;22.50;47.96;99341.95;25150;1313;3056378;-64
2022/06/30 05:15:46;;;;;;;17.20;7.60;;;;;;;22.54;47.99;99345.48;25093;1314;3026525;-64
2022/06/30 05:18:15;;;;;;;17.20;7.60;;;;;;;22.55;47.95;99346.70;25100;1315;3054364;-62
2022/06/30 05:20:44;;;;;;;20.00;6.80;;;;;;;22.58;47.91;99347.87;25025;1313;3026934;-63
2022/06/30 05:23:15;;;;;;;22.80;7.80;;;;;;;22.63;47.88;99345.79;25051;1314;3054352;-67
2022/06/30 05:28:32;;;;;;;13.90;7.00;;;;;;;22.66;48.38;99347.66;25033;1315;3051725;-68
2022/06/30 05:31:01;;;;;;;20.80;6.70;;;;;;;22.68;47.91;99344.92;25035;1313;3027004;-63
2022/06/30 05:33:30;;;;;;;17.80;6.90;;;;;;;22.70;47.93;99350.27;25021;1313;3070012;-65
2022/06/30 05:36:01;;;;;;;16.90;6.50;;;;;;;22.67;47.52;99355.96;25066;1313;3029227;-62
2022/06/30 05:38:31;;;;;;;24.30;6.90;;;;;;;22.68;47.66;99363.73;25054;1315;3026508;-64
2022/06/30 05:41:00;;;;;;;19.40;7.10;;;;;;;22.73;47.65;99369.73;25023;1313;3070560;-62
2022/06/30 05:43:29;;;;;;;17.00;6.10;;;;;;;22.84;46.90;99371.69;25057;1315;3026896;-63
2022/06/30 05:45:58;;;;;;;13.10;6.10;;;;;;;22.87;46.55;99368.25;25016;1316;3055001;-63
2022/06/30 05:48:26;;;;;;;18.40;6.10;;;;;;;22.88;46.51;99366.00;25109;1313;3026528;-62
2022/06/30 05:50:56;;;;;;;17.40;6.30;;;;;;;22.95;46.18;99365.94;25088;1315;3055000;-67
2022/06/30 05:53:24;;;;;;;18.90;6.60;;;;;;;22.96;45.66;99367.08;25121;1313;3028667;-65
2022/06/30 05:55:53;;;;;;;15.70;6.40;;;;;;;22.99;45.74;99363.06;25072;1313;3050839;-65
2022/06/30 05:58:22;;;;;;;16.40;6.50;;;;;;;23.02;45.94;99361.65;25158;1313;3026760;-67
2022/06/30 06:00:51;;;;;;;26.90;7.00;;;;;;;22.98;45.49;99361.70;25052;1315;3057127;-61
2022/06/30 06:03:20;;;;;;;15.20;7.40;;;;;;;22.98;45.85;99361.38;25089;1313;3027000;-62
2022/06/30 06:05:49;;;;;;;15.00;6.80;;;;;;;22.96;45.58;99360.84;25066;1315;3054572;-64
2022/06/30 06:08:18;;;;;;;15.20;7.10;;;;;;;23.00;45.05;99357.23;25101;1315;3027502;-66
2022/06/30 06:10:49;;;;;;;17.60;6.90;;;;;;;23.00;44.64;99354.89;25093;1313;3054658;-59
2022/06/30 06:13:18;;;;;;;15.50;6.70;;;;;;;23.01;44.33;99353.14;25112;1315;3026638;-63
2022/06/30 06:15:48;;;;;;;18.50;7.20;;;;;;;23.01;44.28;99351.17;25064;1315;3026535;-60
2022/06/30 06:18:17;;;;;;;15.20;6.10;;;;;;;23.10;43.94;99355.13;25126;1313;3026288;-63
2022/06/30 06:20:46;;;;;;;23.90;6.60;;;;;;;23.17;44.02;99356.92;25113;1312;3055019;-63
2022/06/30 06:23:15;;;;;;;18.60;6.30;;;;;;;23.22;43.46;99358.23;25127;1313;3026428;-62
2022/06/30 06:25:44;;;;;;;11.70;6.40;;;;;;;23.24;43.30;99362.13;25048;1313;3054788;-62
2022/06/30 06:31:00;;;;;;;14.00;6.80;;;;;;;23.23;43.59;99359.06;25101;1313;3051011;-63
2022/06/30 06:33:29;;;;;;;22.30;7.40;;;;;;;23.27;43.81;99360.58;25074;1313;3026246;-64
2022/06/30 06:35:59;;;;;;;21.60;6.60;;;;;;;23.33;43.79;99364.33;25098;1316;3069612;-63
2022/06/30 06:38:28;;;;;;;21.00;6.30;;;;;;;23.40;43.60;99361.02;25036;1313;3026796;-60
2022/06/30 06:40:57;;;;;;;16.60;5.90;;;;;;;23.33;43.90;99354.01;25162;1315;3055054;-63
2022/06/30 06:43:25;;;;;;;16.70;6.30;;;;;;;23.31;44.11;99351.34;25077;1313;3026751;-61
2022/06/30 06:45:55;;;;;;;13.80;6.20;;;;;;;23.42;43.90;99351.85;25115;1315;3055309;-62
2022/06/30 06:48:24;;;;;;;22.80;6.90;;;;;;;23.55;43.48;99349.80;25083;1313;3028308;-60
2022/06/30 06:50:53;;;;;;;18.10;6.80;;;;;;;23.59;43.28;99349.84;25088;1316;3050669;-62
2022/06/30 06:53:22;;;;;;;16.90;6.60;;;;;;;23.63;43.06;99350.33;25077;1313;3026463;-62
2022/06/30 06:55:51;;;;;;;18.40;6.20;;;;;;;23.67;42.65;99350.59;25145;1313;3058774;-64
2022/06/30 06:58:20;;;;;;;16.30;6.40;;;;;;;23.68;42.89;99345.28;25088;1315;3026444;-62
2022/06/30 07:00:49;;;;;;;16.00;6.30;;;;;;;23.71;42.66;99342.16;25084;1313;3053131;-63
2022/06/30 07:03:18;;;;;;;23.30;7.30;;;;;;;23.79;42.40;99338.61;25116;1316;3026339;-61
2022/06/30 07:05:47;;;;;;;23.30;7.80;;;;;;;23.87;42.17;99342.09;25089;1315;3028422;-61
2022/06/30 07:08:16;;;;;;;21.30;8.10;;;;;;;23.89;42.08;99342.05;25150;1312;3050931;-58
2022/06/30 07:10:46;;;;;;;16.70;7.30;;;;;;;23.89;42.21;99341.01;25068;1315;3027391;-61
2022/06/30 07:13:15;;;;;;;21.50;7.00;;;;;;;24.00;42.22;99339.60;25132;1313;3026526;-63
2022/06/30 07:15:45;;;;;;;19.00;6.30;;;;;;;24.07;41.84;99339.53;25081;1313;3055145;-61
2022/06/30 07:18:15;;;;;;;15.50;5.80;;;;;;;24.19;41.71;99338.91;25123;1313;3026920;-60
2022/06/30 07:20:44;;;;;;;14.00;5.50;;;;;;;24.27;41.61;99339.31;25058;1313;3026711;-62
2022/06/30 07:23:13;;;;;;;12.90;5.40;;;;;;;24.32;41.49;99340.58;25128;1313;3051397;-61
2022/06/30 07:25:42;;;;;;;14.60;5.40;;;;;;;24.33;41.46;99341.16;25084;1313;3028679;-62
2022/06/30 07:28:11;;;;;;;18.70;5.70;;;;;;;24.41;41.26;99339.63;25108;1313;3056262;-63
2022/06/30 07:30:40;;;;;;;16.40;5.70;;;;;;;24.49;41.03;99340.71;25132;1313;3028604;-63
2022/06/30 07:33:10;;;;;;;10.60;5.80;;;;;;;24.54;41.00;99343.50;25131;1313;3047742;-63
2022/06/30 07:35:40;;;;;;;20.70;6.30;;;;;;;24.53;40.99;99347.53;25089;1313;3026179;-60
2022/06/30 07:38:09;;;;;;;14.90;5.40;;;;;;;24.48;41.37;99348.80;25106;1315;3070332;-62
2022/06/30 07:40:38;;;;;;;18.20;6.10;;;;;;;24.44;41.14;99352.75;25149;1315;3026884;-58
2022/06/30 07:43:07;;;;;;;16.50;5.70;;;;;;;24.43;41.45;99354.10;25043;1313;3026506;-64
2022/06/30 07:45:36;;;;;;;18.30;5.80;;;;;;;24.42;41.47;99347.40;25127;1313;3068625;-63
2022/06/30 07:48:05;;;;;;;14.20;5.70;;;;;;;24.45;41.30;99347.27;25116;1313;3026877;-62
2022/06/30 07:50:35;;;;;;;11.90;5.40;;;;;;;24.36;41.59;99353.50;25112;1316;3052106;-61
2022/06/30 07:53:04;;;;;;;19.10;5.30;;;;;;;24.43;41.33;99350.02;25056;1313;3026383;-61
2022/06/30 07:55:33;;;;;;;12.80;5.70;;;;;;;24.44;41.44;99350.73;25116;1313;3054888;-62
2022/06/30 07:58:01;;;;;;;14.40;6.00;;;;;;;24.45;41.24;99344.51;25064;1313;3026359;-59
2022/06/30 08:00:31;;;;;;;12.20;5.50;;;;;;;24.36;41.63;99344.73;25119;1313;3051383;-62
2022/06/30 08:03:01;;;;;;;18.20;5.60;;;;;;;24.32;41.87;99347.69;25096;1313;3026368;-61
2022/06/30 08:05:30;;;;;;;20.10;5.80;;;;;;;24.43;42.06;99339.58;25103;1313;3026646;-61
2022/06/30 08:07:59;;;;;;;13.30;5.10;;;;;;;24.44;41.79;99341.11;25096;1313;3051860;-63
2022/06/30 08:10:31;;;;;;;12.50;5.10;;;;;;;24.52;41.69;99340.52;25075;1313;3026470;-62
2022/06/30 08:13:00;;;;;;;17.70;5.40;;;;;;;24.61;41.48;99341.54;25109;1313;3026851;-66
2022/06/30 08:15:30;;;;;;;14.60;5.40;;;;;;;24.72;41.31;99337.16;25072;1313;3027572;-64
2022/06/30 08:18:03;;;;;;;12.10;5.20;;;;;;;24.91;40.85;99333.20;25118;1315;3026475;-62
2022/06/30 08:20:32;;;;;;;13.40;5.40;;;;;;;24.96;40.67;99328.91;25104;1313;3053995;-60
2022/06/30 08:23:01;;;;;;;21.50;5.00;;;;;;;25.03;40.61;99324.80;25085;1313;3026368;-59
2022/06/30 08:25:30;;;;;;;13.90;5.10;;;;;;;25.21;40.57;99322.91;25070;1313;3026867;-62
2022/06/30 08:27:59;;;;;;;19.70;5.60;;;;;;;25.29;40.09;99319.77;25037;1315;3050281;-65
2022/06/30 08:30:28;;;;;;;17.10;5.50;;;;;;;25.34;40.24;99315.92;25096;1313;3026617;-68
2022/06/30 08:32:57;;;;;;;18.70;5.20;;;;;;;25.43;40.25;99316.20;25143;1312;3055794;-63
2022/06/30 08:35:26;;;;;;;12.60;4.80;;;;;;;25.63;39.80;99313.77;25099;1313;3026194;-66
2022/06/30 08:37:55;;;;;;;13.90;5.30;;;;;;;25.76;39.36;99312.70;25133;1313;3049485;-65
2022/06/30 08:43:11;;;;;;;18.40;5.60;;;;;;;25.80;39.57;99312.16;25065;1315;3056700;-66
2022/06/30 08:45:42;;;;;;;17.50;5.00;;;;;;;25.81;40.06;99309.37;25099;1313;3026483;-62
2022/06/30 08:48:12;;;;;;;15.20;5.30;;;;;;;25.82;40.06;99308.14;25120;1313;3026895;-64
2022/06/30 08:50:42;;;;;;;15.30;5.00;;;;;;;25.85;40.08;99307.47;25101;1313;3026519;-63
2022/06/30 08:53:11;;;;;;;15.10;5.40;;;;;;;25.87;40.14;99309.96;25074;1313;3026370;-62
2022/06/30 08:55:40;;;;;;;14.20;5.20;;;;;;;25.87;39.91;99310.58;25100;1313;3026676;-65
2022/06/30 08:58:09;;;;;;;17.60;4.70;;;;;;;25.89;40.07;99309.90;25063;1313;3051471;-65
2022/06/30 09:00:40;;;;;;;11.00;5.50;;;;;;;26.00;40.22;99314.48;25037;1313;3027298;-62
2022/06/30 09:03:11;;;;;;;17.30;4.90;;;;;;;26.03;40.19;99315.92;25037;1313;3026543;-64
2022/06/30 09:05:44;;;;;;;17.80;5.40;;;;;;;26.06;40.31;99316.95;25106;1313;3026119;-63
2022/06/30 09:08:14;;;;;;;10.80;4.80;;;;;;;26.09;40.26;99322.43;25095;1313;3029406;-61
2022/06/30 09:10:51;;;;;;;18.50;5.10;;;;;;;26.11;40.20;99322.90;25081;1313;3028392;-63
2022/06/30 09:13:23;;;;;;;11.60;4.80;;;;;;;26.17;40.30;99323.77;25070;1313;3049695;-68
2022/06/30 09:15:52;;;;;;;18.70;4.90;;;;;;;26.39;39.58;99319.38;25094;1313;3026488;-65
2022/06/30 09:18:26;;;;;;;13.60;5.20;;;;;;;26.52;39.40;99320.90;25100;1313;3026224;-62
2022/06/30 09:20:55;;;;;;;13.60;5.30;;;;;;;26.53;39.35;99317.56;25083;1313;3048592;-63
2022/06/30 09:23:28;;;;;;;11.80;5.30;;;;;;;26.51;39.56;99317.63;25124;1313;3027044;-63
2022/06/30 09:25:59;;;;;;;16.10;4.80;;;;;;;26.59;39.95;99320.52;25072;1313;3058736;-64
2022/06/30 09:28:42;;;;;;;14.40;5.60;;;;;;;26.74;39.52;99320.73;25130;1313;3026857;-63
2022/06/30 09:31:12;;;;;;;22.20;5.30;;;;;;;26.83;39.54;99318.48;25145;1312;3052532;-63
2022/06/30 09:33:44;;;;;;;12.40;4.90;;;;;;;26.86;39.49;99321.92;25089;1313;3026784;-66
2022/06/30 09:36:32;;;;;;;19.80;5.40;;;;;;;26.97;38.78;99324.20;25074;1313;3026763;-65
2022/06/30 09:39:08;;;;;;;21.10;5.20;;;;;;;27.04;38.69;99321.64;25108;1313;3051014;-65
2022/06/30 09:41:39;;;;;;;18.00;5.40;;;;;;;27.10;38.55;99320.13;25073;1313;3055277;-68
2022/06/30 09:44:21;;;;;;;19.10;5.80;;;;;;;27.15;38.97;99322.00;25153;1312;3026127;-66
2022/06/30 09:47:10;;;;;;;19.50;5.20;;;;;;;27.26;38.97;99320.94;25106;1313;3058900;-67
2022/06/30 09:49:42;;;;;;;13.90;5.10;;;;;;;27.29;38.41;99322.69;25102;1313;3048789;-62
2022/06/30 09:52:24;;;;;;;12.80;4.90;;;;;;;27.34;38.65;99324.52;25103;1313;3026618;-67
2022/06/30 09:54:59;;;;;;;22.70;5.70;;;;;;;27.35;38.80;99322.95;25056;1313;3052758;-66
2022/06/30 09:57:30;;;;;;;17.30;5.20;;;;;;;27.33;38.53;99320.70;25104;1313;3070917;-66
2022/06/30 10:00:02;;;;;;;27.40;5.70;;;;;;;27.28;38.89;99326.41;25133;1313;3027749;-65
2022/06/30 10:02:42;;;;;;;15.50;5.40;;;;;;;27.34;38.48;99329.05;25197;1313;3050368;-58
2022/06/30 10:05:11;;;;;;;11.30;4.90;;;;;;;27.42;38.04;99326.94;25176;1313;3052241;-64
2022/06/30 10:07:41;;;;;;;23.60;6.20;;;;;;;27.45;37.84;99328.07;25150;1315;3026547;-61
2022/06/30 10:10:15;;;;;;;22.80;5.00;;;;;;;27.49;37.75;99327.24;25116;1312;3027975;-61
2022/06/30 10:13:13;;;;;;;23.00;5.90;;;;;;;27.40;38.23;99319.11;25055;1313;3054351;-64
2022/06/30 10:15:44;;;;;;;;;;;;;;;27.34;38.72;99324.89;25075;1313;3051495;-64
2022/06/30 10:18:13;;;;;;;17.00;5.20;;;;;;;27.31;38.69;99323.14;25124;1312;3026577;-63
2022/06/30 10:20:42;;;;;;;17.20;4.60;;;;;;;27.39;38.95;99323.91;25144;1313;3026496;-62
2022/06/30 10:23:13;;;;;;;12.10;5.10;;;;;;;27.49;38.84;99318.54;25045;1315;3053184;-64
2022/06/30 10:25:42;;;;;;;9.30;5.30;;;;;;;27.63;38.61;99313.64;25022;1315;3026960;-61
2022/06/30 10:28:13;;;;;;;18.10;5.40;;;;;;;27.80;37.52;99305.62;25096;1313;3026610;-62
2022/06/30 10:30:54;;;;;;;17.10;4.70;;;;;;;28.00;37.06;99304.27;25110;1315;3026144;-64
2022/06/30 10:33:37;;;;;;;13.40;5.80;;;;;;;28.26;36.69;99300.26;25073;1313;3055160;-68
2022/06/30 10:36:17;;;;;;;15.20;5.10;;;;;;;28.33;36.91;99298.95;25133;1315;3056858;-60
2022/06/30 10:38:54;;;;;;;13.10;5.90;;;;;;;28.42;37.02;99294.21;25050;1312;3050049;-68
2022/06/30 10:41:23;;;;;;;18.80;5.60;;;;;;;28.53;36.64;99300.98;25126;1313;3053570;-64
2022/06/30 10:44:05;;;;;;;13.80;5.50;;;;;;;28.61;36.31;99306.70;25100;1313;3028380;-65
2022/06/30 10:46:35;;;;;;;14.00;5.50;;;;;;;28.46;37.00;99311.91;25065;1313;3071028;-59
2022/06/30 10:49:08;;;;;;;12.40;4.70;;;;;;;28.40;36.46;99316.34;25066;1313;3026936;-64
2022/06/30 10:51:37;;;;;;;15.00;5.20;;;;;;;28.29;36.75;99316.05;25082;1313;3027058;-60
2022/06/30 10:54:06;;;;;;;15.40;5.30;;;;;;;28.24;36.83;99314.56;25064;1316;3026675;-61
2022/06/30 10:56:53;;;;;;;11.40;4.90;;;;;;;28.18;36.96;99314.86;25093;1313;3026637;-64
2022/06/30 10:59:44;;;;;;;15.20;5.70;;;;;;;28.12;36.78;99314.77;25150;1312;3053484;-65
2022/06/30 11:02:16;;;;;;;14.90;4.60;;;;;;;28.24;36.88;99313.45;25134;1313;3055601;-64
2022/06/30 11:04:49;;;;;;;14.70;5.30;;;;;;;28.24;36.71;99311.11;25107;1313;3026620;-63
2022/06/30 11:07:23;;;;;;;14.30;4.50;;;;;;;28.23;36.83;99312.90;25150;1313;3050211;-63
2022/06/30 11:09:54;;;;;;;14.90;4.50;;;;;;;28.25;36.57;99306.87;25065;1313;3052286;-64
2022/06/30 11:12:29;;;;;;;13.40;4.90;;;;;;;28.43;36.49;99303.70;25119;1313;3027005;-66
2022/06/30 11:14:58;;;;;;;21.20;4.90;;;;;;;28.59;36.43;99302.17;25083;1313;3071056;-62
2022/06/30 11:17:28;;;;;;;16.70;4.70;;;;;;;28.61;36.57;99302.28;25051;1313;3027721;-69
2022/06/30 11:20:12;;;;;;;10.10;4.70;;;;;;;28.77;36.21;99302.65;25046;1315;3026723;-65
2022/06/30 11:22:41;;;;;;;15.80;4.20;;;;;;;28.86;35.87;99306.71;25091;1313;3055073;-62
2022/06/30 11:27:17;;;;;;;14.60;4.40;;;;;;;28.89;35.91;99306.17;25121;1314;3026554;-60
2022/06/30 11:28:02;;;;;;;15.30;4.90;;;;;;;29.07;35.44;99306.42;25077;1313;3052976;-66
2022/06/30 11:30:32;;;;;;;19.90;4.90;;;;;;;28.93;35.54;99312.02;25100;1313;3027389;-63
2022/06/30 11:33:03;;;;;;;17.40;4.90;;;;;;;28.78;35.86;99307.80;25093;1312;3026531;-68
2022/06/30 11:35:33;;;;;;;7.40;4.30;;;;;;;28.71;35.50;99306.71;25165;1313;3028626;-65
2022/06/30 11:38:02;;;;;;;21.40;5.10;;;;;;;28.64;35.35;99300.16;25075;1313;3027359;-70
2022/06/30 11:40:32;;;;;;;12.10;4.40;;;;;;;28.72;34.99;99300.14;25045;1313;3026606;-66
2022/06/30 11:43:18;;;;;;;16.20;4.40;;;;;;;28.78;34.82;99295.74;25033;1313;3069252;-66